Terminal Aerodrome Forecast
Issued by NWS

Home | Current Version | Previous Version | Text Only | Print | Product List | Glossary On
Versions: 1 2 3 4 5 6 7 8 9 10 11 12 13 14 15 16 17 18
000
FTUS46 KPDT 311700
TAFALW
TAF
KALW 311739Z 3118/0118 22007KT P6SM BKN080 OVC100
     FM312000 23009KT P6SM SCT080 BKN110
     FM010600 16005KT 3SM -RA BR OVC035 PROB30 0106/0112 2SM RA
      SCT005 BKN015 OVC020=

USA.gov is the U.S. government's official web portal to all federal, state and local government web resources and services.